Time;durP1;ratioP1;P1;durP2;ratioP2;P2;SDS_P1;SDS_P2;PMS_P1;PMS_P2;Temp;Humidity;BMP_temperature;BMP_pressure;BME280_temperature;BME280_humidity;BME280_pressure;Samples;Min_cycle;Max_cycle;Signal;HPM_P1;HPM_P2
2023/10/21 00:00:55;;;;;;;;;;;;;;;;;;2203146;59;2473;-24
2023/10/21 00:03:25;;;;;;;;;;;;;;;;;;2204270;59;2771;-24
2023/10/21 00:05:56;;;;;;;;;;;;;;;;;;2203101;67;2677;-25
2023/10/21 00:08:26;;;;;;;;;;;;;;;;;;2205474;67;1954;-25
2023/10/21 00:11:08;;;;;;;;;;;;;;;;;;2206377;59;2450;-25
2023/10/21 00:13:38;;;;;;;;;;;;;;;;;;2203937;59;2538;-25
2023/10/21 00:16:08;;;;;;;;;;;;;;;;;;2206125;59;3871;-24
2023/10/21 00:18:39;;;;;;;;;;;;;;;;;;2203980;59;4108;-25
2023/10/21 00:21:12;;;;;;;;;;;;;;;;;;2205768;67;1845;-24
2023/10/21 00:23:42;;;;;;;;;;;;;;;;;;2205092;67;3718;-25
2023/10/21 00:26:12;;;;;;;;;;;;;;;;;;2205608;67;2749;-25
2023/10/21 00:28:43;;;;;;;;;;;;;;;;;;2203071;59;1949;-25
2023/10/21 00:31:13;;;;;;;;;;;;;;;;;;2204782;59;4199;-24
2023/10/21 00:33:43;;;;;;;;;;;;;;;;;;2205878;67;1865;-24
2023/10/21 00:36:13;;;;;;;;;;;;;;;;;;2205441;60;1973;-24
2023/10/21 00:38:43;;;;;;;;;;;;;;;;;;2205422;67;2943;-24
2023/10/21 00:41:14;;;;;;;;;;;;;;;;;;2204973;67;2767;-24
2023/10/21 00:43:44;;;;;;;;;;;;;;;;;;2205056;67;2188;-24
2023/10/21 00:46:17;;;;;;;;;;;;;;;;;;2204866;67;3603;-25
2023/10/21 00:48:48;;;;;;;;;;;;;;;;;;2205977;59;1925;-24
2023/10/21 00:51:19;;;;;;;;;;;;;;;;;;2204692;67;1891;-24
2023/10/21 00:53:49;;;;;;;;;;;;;;;;;;2205009;59;2472;-24
2023/10/21 00:56:19;;;;;;;;;;;;;;;;;;2204784;67;1828;-24
2023/10/21 00:58:50;;;;;;;;;;;;;;;;;;2201646;67;5188;-24
2023/10/21 01:01:21;;;;;;;;;;;;;;;;;;2203504;59;3334;-24
2023/10/21 01:03:51;;;;;;;;;;;;;;;;;;2205491;59;4050;-25
2023/10/21 01:06:21;;;;;;;;;;;;;;;;;;2204766;67;3809;-25
2023/10/21 01:08:52;;;;;;;;;;;;;;;;;;2199231;67;3393;-24
2023/10/21 01:11:23;;;;;;;;;;;;;;;;;;2201829;59;4280;-25
2023/10/21 01:13:54;;;;;;;;;;;;;;;;;;2205980;59;4048;-25
2023/10/21 01:16:24;;;;;;;;;;;;;;;;;;2204202;67;3475;-24
2023/10/21 01:18:55;;;;;;;;;;;;;;;;;;2199705;60;2840;-24
2023/10/21 01:21:25;;;;;;;;;;;;;;;;;;2204822;67;3048;-25
2023/10/21 01:23:55;;;;;;;;;;;;;;;;;;2205077;59;2798;-24
2023/10/21 01:26:25;;;;;;;;;;;;;;;;;;2202048;67;2174;-25
2023/10/21 01:28:56;;;;;;;;;;;;;;;;;;2205323;59;4110;-24
2023/10/21 01:31:26;;;;;;;;;;;;;;;;;;2202025;59;4278;-24
2023/10/21 01:33:56;;;;;;;;;;;;;;;;;;2205934;59;4133;-24
2023/10/21 01:36:29;;;;;;;;;;;;;;;;;;2200673;59;3746;-24
2023/10/21 01:39:00;;;;;;;;;;;;;;;;;;2205507;67;4153;-24
2023/10/21 01:41:30;;;;;;;;;;;;;;;;;;2205138;67;2357;-24
2023/10/21 01:44:00;;;;;;;;;;;;;;;;;;2206633;67;2187;-24
2023/10/21 01:46:30;;;;;;;;;;;;;;;;;;2204723;62;4208;-24
2023/10/21 01:49:00;;;;;;;;;;;;;;;;;;2205646;67;2921;-24
2023/10/21 01:51:31;;;;;;;;;;;;;;;;;;2201909;67;4135;-24
2023/10/21 01:54:01;;;;;;;;;;;;;;;;;;2205194;59;4028;-24
2023/10/21 01:56:31;;;;;;;;;;;;;;;;;;2203289;67;2925;-24
2023/10/21 01:59:01;;;;;;;;;;;;;;;;;;2205006;67;1867;-24
2023/10/21 02:01:31;;;;;;;;;;;;;;;;;;2204611;59;2344;-24
2023/10/21 02:04:05;;;;;;;;;;;;;;;;;;2205177;59;2530;-24
2023/10/21 02:06:35;;;;;;;;;;;;;;;;;;2204241;67;2761;-24
2023/10/21 02:09:05;;;;;;;;;;;;;;;;;;2204584;59;1949;-24
2023/10/21 02:11:35;;;;;;;;;;;;;;;;;;2204711;59;3098;-24
2023/10/21 02:14:05;;;;;;;;;;;;;;;;;;2206001;59;3709;-24
2023/10/21 02:16:36;;;;;;;;;;;;;;;;;;2202299;60;4203;-24
2023/10/21 02:19:06;;;;;;;;;;;;;;;;;;2202693;67;2243;-25
2023/10/21 02:21:36;;;;;;;;;;;;;;;;;;2202059;67;4117;-24
2023/10/21 02:24:06;;;;;;;;;;;;;;;;;;2203127;67;3912;-24
2023/10/21 02:26:37;;;;;;;;;;;;;;;;;;2205426;67;2861;-24
2023/10/21 02:29:07;;;;;;;;;;;;;;;;;;2205925;59;2545;-24
2023/10/21 02:31:37;;;;;;;;;;;;;;;;;;2204824;59;2692;-24
2023/10/21 02:34:08;;;;;;;;;;;;;;;;;;2206527;67;2543;-24
2023/10/21 02:36:38;;;;;;;;;;;;;;;;;;2204002;67;2075;-24
2023/10/21 02:39:11;;;;;;;;;;;;;;;;;;2206650;67;2905;-24
2023/10/21 02:41:41;;;;;;;;;;;;;;;;;;2206208;59;2667;-24
2023/10/21 02:44:12;;;;;;;;;;;;;;;;;;2206769;67;3701;-24
2023/10/21 02:46:42;;;;;;;;;;;;;;;;;;2205713;67;4044;-24
2023/10/21 02:49:12;;;;;;;;;;;;;;;;;;2203124;67;1980;-24
2023/10/21 02:51:42;;;;;;;;;;;;;;;;;;2205091;67;4069;-24
2023/10/21 02:54:16;;;;;;;;;;;;;;;;;;2206287;67;2331;-24
2023/10/21 02:56:46;;;;;;;;;;;;;;;;;;2206115;67;4075;-24
2023/10/21 02:59:16;;;;;;;;;;;;;;;;;;2205533;67;2962;-24
2023/10/21 03:01:48;;;;;;;;;;;;;;;;;;2205771;59;4117;-24
2023/10/21 03:04:18;;;;;;;;;;;;;;;;;;2206083;59;2808;-24
2023/10/21 03:06:48;;;;;;;;;;;;;;;;;;2205360;67;3008;-24
2023/10/21 03:09:19;;;;;;;;;;;;;;;;;;2206957;67;3485;-24
2023/10/21 03:11:49;;;;;;;;;;;;;;;;;;2205669;59;3843;-24
2023/10/21 03:14:22;;;;;;;;;;;;;;;;;;2204551;67;4233;-24
2023/10/21 03:16:52;;;;;;;;;;;;;;;;;;2202686;59;3904;-24
2023/10/21 03:19:23;;;;;;;;;;;;;;;;;;2206725;59;2469;-24
2023/10/21 03:21:53;;;;;;;;;;;;;;;;;;2206096;67;4377;-24
2023/10/21 03:24:23;;;;;;;;;;;;;;;;;;2205731;67;3855;-24
2023/10/21 03:26:53;;;;;;;;;;;;;;;;;;2206270;67;3036;-24
2023/10/21 03:29:23;;;;;;;;;;;;;;;;;;2203084;59;2150;-24
2023/10/21 03:31:53;;;;;;;;;;;;;;;;;;2206667;59;3741;-24
2023/10/21 03:34:24;;;;;;;;;;;;;;;;;;2203573;67;3823;-24
2023/10/21 03:36:54;;;;;;;;;;;;;;;;;;2206537;67;3520;-24
2023/10/21 03:39:24;;;;;;;;;;;;;;;;;;2205326;67;1930;-25
2023/10/21 03:41:55;;;;;;;;;;;;;;;;;;2206191;67;4129;-24
2023/10/21 03:44:25;;;;;;;;;;;;;;;;;;2205519;67;3761;-24
2023/10/21 03:46:55;;;;;;;;;;;;;;;;;;2199962;67;1903;-24
2023/10/21 03:49:25;;;;;;;;;;;;;;;;;;2205199;67;2831;-24
2023/10/21 03:51:56;;;;;;;;;;;;;;;;;;2206446;67;2184;-24
2023/10/21 03:54:26;;;;;;;;;;;;;;;;;;2205023;59;3972;-24
2023/10/21 03:56:56;;;;;;;;;;;;;;;;;;2206803;67;1839;-24
2023/10/21 03:59:27;;;;;;;;;;;;;;;;;;2205576;67;2380;-24
2023/10/21 04:01:58;;;;;;;;;;;;;;;;;;2205884;59;3855;-24
2023/10/21 04:04:28;;;;;;;;;;;;;;;;;;2205294;67;3687;-24
2023/10/21 04:06:59;;;;;;;;;;;;;;;;;;2206350;67;3952;-24
2023/10/21 04:09:29;;;;;;;;;;;;;;;;;;2205401;67;2148;-24
2023/10/21 04:11:59;;;;;;;;;;;;;;;;;;2206693;59;3994;-24
2023/10/21 04:14:29;;;;;;;;;;;;;;;;;;2205980;59;2504;-24
2023/10/21 04:17:00;;;;;;;;;;;;;;;;;;2206401;67;4113;-24
2023/10/21 04:19:30;;;;;;;;;;;;;;;;;;2205294;67;5329;-24
2023/10/21 04:22:00;;;;;;;;;;;;;;;;;;2206526;67;4064;-24
2023/10/21 04:24:30;;;;;;;;;;;;;;;;;;2205595;67;3800;-24
2023/10/21 04:27:01;;;;;;;;;;;;;;;;;;2206827;67;2977;-24
2023/10/21 04:29:34;;;;;;;;;;;;;;;;;;2205383;59;4204;-24
2023/10/21 04:32:04;;;;;;;;;;;;;;;;;;2206255;59;2836;-24
2023/10/21 04:34:34;;;;;;;;;;;;;;;;;;2205483;67;3346;-24
2023/10/21 04:37:04;;;;;;;;;;;;;;;;;;2205880;67;3732;-24
2023/10/21 04:39:34;;;;;;;;;;;;;;;;;;2204677;67;3562;-24
2023/10/21 04:42:05;;;;;;;;;;;;;;;;;;2206462;67;3766;-24
2023/10/21 04:44:39;;;;;;;;;;;;;;;;;;2202524;59;2300;-24
2023/10/21 04:47:09;;;;;;;;;;;;;;;;;;2206184;59;2313;-24
2023/10/21 04:49:42;;;;;;;;;;;;;;;;;;2204669;67;2811;-24
2023/10/21 04:52:14;;;;;;;;;;;;;;;;;;2206513;59;2438;-24
2023/10/21 04:54:45;;;;;;;;;;;;;;;;;;2205499;67;2979;-24
2023/10/21 04:57:16;;;;;;;;;;;;;;;;;;2205900;67;2114;-24
2023/10/21 04:59:47;;;;;;;;;;;;;;;;;;2202849;59;3202;-24
2023/10/21 05:02:17;;;;;;;;;;;;;;;;;;2206353;59;3478;-24
2023/10/21 05:04:48;;;;;;;;;;;;;;;;;;2204964;67;4211;-24
2023/10/21 05:07:19;;;;;;;;;;;;;;;;;;2205296;59;1911;-24
2023/10/21 05:09:49;;;;;;;;;;;;;;;;;;2205049;67;2164;-24
2023/10/21 05:12:20;;;;;;;;;;;;;;;;;;2211803;53;3528;-22
2023/10/21 05:14:50;;;;;;;;;;;;;;;;;;2215124;58;2225;-22
2023/10/21 05:17:20;;;;;;;;;;;;;;;;;;2216222;66;2250;-21
2023/10/21 05:19:54;;;;;;;;;;;;;;;;;;2212649;59;1938;-21
2023/10/21 05:22:24;;;;;;;;;;;;;;;;;;2215878;66;1827;-21
2023/10/21 05:24:54;;;;;;;;;;;;;;;;;;2214540;59;2330;-21
2023/10/21 05:27:25;;;;;;;;;;;;;;;;;;2211869;59;1762;-21
2023/10/21 05:29:56;;;;;;;;;;;;;;;;;;2214323;59;2251;-21
2023/10/21 05:32:26;;;;;;;;;;;;;;;;;;2215177;59;3771;-21
2023/10/21 05:34:56;;;;;;;;;;;;;;;;;;2210397;59;4471;-21
2023/10/21 05:37:27;;;;;;;;;;;;;;;;;;2211788;59;1791;-21
2023/10/21 05:39:57;;;;;;;;;;;;;;;;;;2213933;59;1870;-21
2023/10/21 05:42:27;;;;;;;;;;;;;;;;;;2211709;59;1771;-21
2023/10/21 05:44:58;;;;;;;;;;;;;;;;;;2214114;66;1866;-21
2023/10/21 05:47:28;;;;;;;;;;;;;;;;;;2211572;59;2237;-21
2023/10/21 05:49:58;;;;;;;;;;;;;;;;;;2213987;59;2747;-21
2023/10/21 05:52:29;;;;;;;;;;;;;;;;;;2215421;59;2585;-21
2023/10/21 05:55:01;;;;;;;;;;;;;;;;;;2211938;66;1851;-21
2023/10/21 05:57:32;;;;;;;;;;;;;;;;;;2214611;59;2669;-21
2023/10/21 06:00:05;;;;;;;;;;;;;;;;;;2214736;59;1941;-21
2023/10/21 06:02:36;;;;;;;;;;;;;;;;;;2214599;59;3200;-21
2023/10/21 06:05:06;;;;;;;;;;;;;;;;;;2215809;66;2216;-21
2023/10/21 06:07:36;;;;;;;;;;;;;;;;;;2215300;59;2510;-21
2023/10/21 06:10:07;;;;;;;;;;;;;;;;;;2212967;66;1923;-21
2023/10/21 06:12:39;;;;;;;;;;;;;;;;;;2215209;59;2026;-21
2023/10/21 06:15:11;;;;;;;;;;;;;;;;;;2215228;59;1873;-21
2023/10/21 06:17:41;;;;;;;;;;;;;;;;;;2215272;59;3142;-21
2023/10/21 06:20:11;;;;;;;;;;;;;;;;;;2214911;66;2074;-21
2023/10/21 06:22:42;;;;;;;;;;;;;;;;;;2211052;59;3170;-22
2023/10/21 06:25:14;;;;;;;;;;;;;;;;;;2215510;59;2991;-21
2023/10/21 06:27:44;;;;;;;;;;;;;;;;;;2214354;59;2806;-21
2023/10/21 06:30:14;;;;;;;;;;;;;;;;;;2215432;59;2316;-22
2023/10/21 06:32:45;;;;;;;;;;;;;;;;;;2213413;59;4063;-21
2023/10/21 06:35:15;;;;;;;;;;;;;;;;;;2215165;59;3841;-21
2023/10/21 06:37:45;;;;;;;;;;;;;;;;;;2211444;59;2769;-21
2023/10/21 06:40:16;;;;;;;;;;;;;;;;;;2213013;59;1544;-21
2023/10/21 06:42:46;;;;;;;;;;;;;;;;;;2214796;66;3191;-21
2023/10/21 06:45:16;;;;;;;;;;;;;;;;;;2215909;59;2110;-21
2023/10/21 06:47:47;;;;;;;;;;;;;;;;;;2215009;66;1952;-21
2023/10/21 06:50:17;;;;;;;;;;;;;;;;;;2215875;59;1995;-21
2023/10/21 06:52:47;;;;;;;;;;;;;;;;;;2214067;59;2408;-21
2023/10/21 06:55:19;;;;;;;;;;;;;;;;;;2215782;66;2307;-21
2023/10/21 06:57:53;;;;;;;;;;;;;;;;;;2214397;66;2333;-22
2023/10/21 07:00:23;;;;;;;;;;;;;;;;;;2211227;59;3625;-24
2023/10/21 07:02:53;;;;;;;;;;;;;;;;;;2214148;59;2895;-23
2023/10/21 07:05:24;;;;;;;;;;;;;;;;;;2212612;67;1904;-23
2023/10/21 07:07:54;;;;;;;;;;;;;;;;;;2214704;59;3583;-23
2023/10/21 07:10:27;;;;;;;;;;;;;;;;;;2214628;59;2318;-23
2023/10/21 07:13:02;;;;;;;;;;;;;;;;;;2211393;59;2957;-23
2023/10/21 07:15:33;;;;;;;;;;;;;;;;;;2215880;59;1876;-23
2023/10/21 07:18:03;;;;;;;;;;;;;;;;;;2215086;66;4164;-24
2023/10/21 07:20:36;;;;;;;;;;;;;;;;;;2215011;66;2591;-24
2023/10/21 07:23:08;;;;;;;;;;;;;;;;;;2210722;59;2815;-23
2023/10/21 07:25:39;;;;;;;;;;;;;;;;;;2214263;59;2689;-23
2023/10/21 07:28:10;;;;;;;;;;;;;;;;;;2211311;59;2220;-24
2023/10/21 07:30:40;;;;;;;;;;;;;;;;;;2213304;59;4342;-24
2023/10/21 07:33:10;;;;;;;;;;;;;;;;;;2214346;59;4651;-24
2023/10/21 07:35:41;;;;;;;;;;;;;;;;;;2209064;59;2407;-24
2023/10/21 07:38:11;;;;;;;;;;;;;;;;;;2215155;58;1850;-25
2023/10/21 07:40:43;;;;;;;;;;;;;;;;;;2214090;59;5004;-24
2023/10/21 07:43:16;;;;;;;;;;;;;;;;;;2215094;59;2743;-24
2023/10/21 07:45:46;;;;;;;;;;;;;;;;;;2210360;59;2181;-23
2023/10/21 07:48:19;;;;;;;;;;;;;;;;;;2215010;59;3035;-23
2023/10/21 07:50:53;;;;;;;;;;;;;;;;;;2213986;59;2239;-22
2023/10/21 07:53:23;;;;;;;;;;;;;;;;;;2212819;59;3582;-20
2023/10/21 07:55:54;;;;;;;;;;;;;;;;;;2212776;59;2626;-24
2023/10/21 07:58:24;;;;;;;;;;;;;;;;;;2214344;66;4079;-23
2023/10/21 08:00:55;;;;;;;;;;;;;;;;;;2212527;59;3612;-20
2023/10/21 08:03:25;;;;;;;;;;;;;;;;;;2214476;59;2316;-23
2023/10/21 08:05:55;;;;;;;;;;;;;;;;;;2212594;59;2686;-24
2023/10/21 08:08:27;;;;;;;;;;;;;;;;;;2214497;59;3205;-23
2023/10/21 08:11:02;;;;;;;;;;;;;;;;;;2213160;59;3421;-24
2023/10/21 08:13:32;;;;;;;;;;;;;;;;;;2214313;59;2906;-20
2023/10/21 08:16:04;;;;;;;;;;;;;;;;;;2212651;59;4000;-23
2023/10/21 08:18:34;;;;;;;;;;;;;;;;;;2214279;66;4098;-24
2023/10/21 08:21:05;;;;;;;;;;;;;;;;;;2212963;59;3864;-20
2023/10/21 08:23:35;;;;;;;;;;;;;;;;;;2213825;66;3320;-23
2023/10/21 08:26:06;;;;;;;;;;;;;;;;;;2213016;59;2100;-20
2023/10/21 08:28:36;;;;;;;;;;;;;;;;;;2211501;59;1825;-20
2023/10/21 08:31:08;;;;;;;;;;;;;;;;;;2209846;59;2602;-23
2023/10/21 08:33:38;;;;;;;;;;;;;;;;;;2214994;59;1993;-20
2023/10/21 08:36:15;;;;;;;;;;;;;;;;;;2213138;66;4623;-20
2023/10/21 08:38:46;;;;;;;;;;;;;;;;;;2211185;66;1973;-20
2023/10/21 08:41:17;;;;;;;;;;;;;;;;;;2211989;59;3474;-23
2023/10/21 08:43:48;;;;;;;;;;;;;;;;;;2208643;59;3425;-20
2023/10/21 08:46:19;;;;;;;;;;;;;;;;;;2213683;59;2085;-22
2023/10/21 08:48:51;;;;;;;;;;;;;;;;;;2211887;59;3305;-23
2023/10/21 08:51:21;;;;;;;;;;;;;;;;;;2211077;59;2800;-24
2023/10/21 08:53:53;;;;;;;;;;;;;;;;;;2212550;59;3319;-21
2023/10/21 08:56:24;;;;;;;;;;;;;;;;;;2213796;59;2560;-20
2023/10/21 08:58:56;;;;;;;;;;;;;;;;;;2212995;59;2455;-22
2023/10/21 09:01:26;;;;;;;;;;;;;;;;;;2212001;59;3434;-20
2023/10/21 09:03:57;;;;;;;;;;;;;;;;;;2207516;59;3622;-23
2023/10/21 09:06:28;;;;;;;;;;;;;;;;;;2213481;59;2232;-20
2023/10/21 09:08:59;;;;;;;;;;;;;;;;;;2205512;59;2686;-23
2023/10/21 09:11:29;;;;;;;;;;;;;;;;;;2212789;66;2340;-20
2023/10/21 09:14:00;;;;;;;;;;;;;;;;;;2211459;59;3414;-24
2023/10/21 09:16:34;;;;;;;;;;;;;;;;;;2213412;59;2376;-23
2023/10/21 09:19:05;;;;;;;;;;;;;;;;;;2212059;66;3338;-20
2023/10/21 09:21:38;;;;;;;;;;;;;;;;;;2210020;59;2342;-20
2023/10/21 09:24:12;;;;;;;;;;;;;;;;;;2212123;59;4288;-20
2023/10/21 09:26:46;;;;;;;;;;;;;;;;;;2212628;59;2663;-23
2023/10/21 09:29:19;;;;;;;;;;;;;;;;;;2206592;59;2715;-20
2023/10/21 09:31:53;;;;;;;;;;;;;;;;;;2213167;59;2923;-20
2023/10/21 09:34:33;;;;;;;;;;;;;;;;;;2213695;59;2460;-20
2023/10/21 09:37:04;;;;;;;;;;;;;;;;;;2211931;59;2421;-20
2023/10/21 09:39:38;;;;;;;;;;;;;;;;;;2213577;66;3219;-22
2023/10/21 09:42:08;;;;;;;;;;;;;;;;;;2211277;59;2694;-22
2023/10/21 09:44:39;;;;;;;;;;;;;;;;;;2213793;59;2053;-23
2023/10/21 09:47:10;;;;;;;;;;;;;;;;;;2212694;59;3179;-23
2023/10/21 09:49:42;;;;;;;;;;;;;;;;;;2213469;59;3467;-24
2023/10/21 09:52:14;;;;;;;;;;;;;;;;;;2213734;59;2761;-23
2023/10/21 09:54:53;;;;;;;;;;;;;;;;;;2210277;59;2711;-23
2023/10/21 09:57:25;;;;;;;;;;;;;;;;;;2213585;59;1621;-23
2023/10/21 09:59:56;;;;;;;;;;;;;;;;;;2212613;66;2499;-23
2023/10/21 10:02:27;;;;;;;;;;;;;;;;;;2207206;59;3212;-20
2023/10/21 10:04:58;;;;;;;;;;;;;;;;;;2206211;59;3083;-23
2023/10/21 10:07:30;;;;;;;;;;;;;;;;;;2213694;59;4053;-23
2023/10/21 10:10:02;;;;;;;;;;;;;;;;;;2211763;59;3083;-22
2023/10/21 10:12:55;;;;;;;;;;;;;;;;;;2214031;59;1964;-20
2023/10/21 10:15:39;;;;;;;;;;;;;;;;;;2212422;66;3055;-20
2023/10/21 10:18:13;;;;;;;;;;;;;;;;;;2212158;66;1850;-23
2023/10/21 10:20:44;;;;;;;;;;;;;;;;;;2214467;59;1874;-23
2023/10/21 10:23:15;;;;;;;;;;;;;;;;;;2212992;59;1841;-20
2023/10/21 10:25:46;;;;;;;;;;;;;;;;;;2213227;59;1806;-20
2023/10/21 10:28:20;;;;;;;;;;;;;;;;;;2207881;66;3016;-22
2023/10/21 10:30:51;;;;;;;;;;;;;;;;;;2211614;59;2590;-20
2023/10/21 10:33:26;;;;;;;;;;;;;;;;;;2209749;58;2618;-20
2023/10/21 10:35:57;;;;;;;;;;;;;;;;;;2206058;59;2439;-20
2023/10/21 10:38:32;;;;;;;;;;;;;;;;;;2212077;59;2038;-20
2023/10/21 10:41:06;;;;;;;;;;;;;;;;;;2211697;59;3977;-22
2023/10/21 10:43:39;;;;;;;;;;;;;;;;;;2211869;59;2372;-23
2023/10/21 10:46:10;;;;;;;;;;;;;;;;;;2211306;59;2691;-20
2023/10/21 10:48:42;;;;;;;;;;;;;;;;;;2212646;59;1891;-20
2023/10/21 10:51:15;;;;;;;;;;;;;;;;;;2212630;58;2506;-19
2023/10/21 10:53:58;;;;;;;;;;;;;;;;;;2212970;59;3555;-19
2023/10/21 10:56:43;;;;;;;;;;;;;;;;;;2213509;59;2655;-22
2023/10/21 10:59:14;;;;;;;;;;;;;;;;;;2212971;59;2918;-22
2023/10/21 11:01:55;;;;;;;;;;;;;;;;;;2209503;59;3333;-23
2023/10/21 11:04:25;;;;;;;;;;;;;;;;;;2211606;59;3732;-19
2023/10/21 11:06:56;;;;;;;;;;;;;;;;;;2209379;59;2279;-19
2023/10/21 11:09:33;;;;;;;;;;;;;;;;;;2209904;59;3599;-23
2023/10/21 11:12:04;;;;;;;;;;;;;;;;;;2212483;59;2245;-22
2023/10/21 11:14:35;;;;;;;;;;;;;;;;;;2214305;59;1809;-22
2023/10/21 11:17:05;;;;;;;;;;;;;;;;;;2213517;59;1881;-21
2023/10/21 11:19:35;;;;;;;;;;;;;;;;;;2213755;66;1990;-22
2023/10/21 11:22:18;;;;;;;;;;;;;;;;;;2212552;59;2964;-22
2023/10/21 11:24:48;;;;;;;;;;;;;;;;;;2213568;59;2035;-23
2023/10/21 11:27:18;;;;;;;;;;;;;;;;;;2212153;59;3034;-22
2023/10/21 11:29:52;;;;;;;;;;;;;;;;;;2212565;59;3039;-23
2023/10/21 11:32:28;;;;;;;;;;;;;;;;;;2213354;59;3931;-20
2023/10/21 11:35:05;;;;;;;;;;;;;;;;;;2211607;59;3129;-20
2023/10/21 11:37:37;;;;;;;;;;;;;;;;;;2213636;59;2980;-24
2023/10/21 11:40:09;;;;;;;;;;;;;;;;;;2212387;59;2947;-24
2023/10/21 11:42:40;;;;;;;;;;;;;;;;;;2209149;63;1864;-20
2023/10/21 11:45:12;;;;;;;;;;;;;;;;;;2211143;59;2889;-20
2023/10/21 11:47:43;;;;;;;;;;;;;;;;;;2208493;59;2310;-20
2023/10/21 11:50:13;;;;;;;;;;;;;;;;;;2210637;59;2355;-23
2023/10/21 11:52:44;;;;;;;;;;;;;;;;;;2212350;59;2048;-20
2023/10/21 12:38:38;;;;;;;;;;;;;;;;;;2212297;66;3535;-25
2023/10/21 12:44:00;;;;;;;;;;;;;;;;;;2206981;59;2966;-21
2023/10/21 12:46:35;;;;;;;;;;;;;;;;;;2212055;59;3270;-22
2023/10/21 12:49:12;;;;;;;;;;;;;;;;;;2211316;59;3482;-26
2023/10/21 12:51:43;;;;;;;;;;;;;;;;;;2208400;59;2409;-26
2023/10/21 12:54:13;;;;;;;;;;;;;;;;;;2211283;59;3690;-25
2023/10/21 12:56:43;;;;;;;;;;;;;;;;;;2209766;59;3689;-25
2023/10/21 12:59:14;;;;;;;;;;;;;;;;;;2212480;59;2610;-26
2023/10/21 13:01:44;;;;;;;;;;;;;;;;;;2214288;59;4200;-26
2023/10/21 13:04:15;;;;;;;;;;;;;;;;;;2212119;59;2742;-22
2023/10/21 13:06:45;;;;;;;;;;;;;;;;;;2207607;59;3418;-22
2023/10/21 13:09:23;;;;;;;;;;;;;;;;;;2211456;59;2162;-25
2023/10/21 13:11:53;;;;;;;;;;;;;;;;;;2212857;59;2623;-22
2023/10/21 13:14:25;;;;;;;;;;;;;;;;;;2212152;59;1863;-25
2023/10/21 13:16:55;;;;;;;;;;;;;;;;;;2211124;59;3498;-26
2023/10/21 13:19:26;;;;;;;;;;;;;;;;;;2209274;59;3678;-25
2023/10/21 13:21:57;;;;;;;;;;;;;;;;;;2211892;66;3643;-22
2023/10/21 13:24:27;;;;;;;;;;;;;;;;;;2208370;59;2663;-21
2023/10/21 13:26:58;;;;;;;;;;;;;;;;;;2210255;59;4092;-25
2023/10/21 13:29:28;;;;;;;;;;;;;;;;;;2212620;59;3591;-22
2023/10/21 13:31:59;;;;;;;;;;;;;;;;;;2209775;59;2998;-22
2023/10/21 13:34:30;;;;;;;;;;;;;;;;;;2212337;59;2655;-22
2023/10/21 13:37:01;;;;;;;;;;;;;;;;;;2212487;59;2290;-22
2023/10/21 13:39:31;;;;;;;;;;;;;;;;;;2212924;59;2816;-25
2023/10/21 13:42:05;;;;;;;;;;;;;;;;;;2211794;66;2155;-26
2023/10/21 13:44:36;;;;;;;;;;;;;;;;;;2209185;59;3220;-22
2023/10/21 13:47:08;;;;;;;;;;;;;;;;;;2211783;59;1772;-26
2023/10/21 13:49:41;;;;;;;;;;;;;;;;;;2208627;59;3840;-23
2023/10/21 13:52:11;;;;;;;;;;;;;;;;;;2208205;59;2433;-26
2023/10/21 13:54:43;;;;;;;;;;;;;;;;;;2212893;59;2213;-26
2023/10/21 13:57:13;;;;;;;;;;;;;;;;;;2207206;60;3571;-23
2023/10/21 13:59:47;;;;;;;;;;;;;;;;;;2212659;59;2678;-27
2023/10/21 14:02:19;;;;;;;;;;;;;;;;;;2210665;59;3490;-24
2023/10/21 14:04:49;;;;;;;;;;;;;;;;;;2211909;59;3084;-25
2023/10/21 14:07:19;;;;;;;;;;;;;;;;;;2210752;59;3045;-23
2023/10/21 14:09:49;;;;;;;;;;;;;;;;;;2212475;59;3178;-23
2023/10/21 14:12:20;;;;;;;;;;;;;;;;;;2208260;59;2688;-22
2023/10/21 14:14:51;;;;;;;;;;;;;;;;;;2209184;59;3101;-22
2023/10/21 14:17:21;;;;;;;;;;;;;;;;;;2211673;59;2164;-22
2023/10/21 14:19:53;;;;;;;;;;;;;;;;;;2213756;66;2732;-22
2023/10/21 14:22:23;;;;;;;;;;;;;;;;;;2209016;59;2915;-22
2023/10/21 14:24:54;;;;;;;;;;;;;;;;;;2210053;59;3424;-23
2023/10/21 14:27:24;;;;;;;;;;;;;;;;;;2211472;59;2786;-23
2023/10/21 14:30:11;;;;;;;;;;;;;;;;;;2210287;59;2982;-22
2023/10/21 14:32:41;;;;;;;;;;;;;;;;;;2212855;59;2366;-26
2023/10/21 14:35:12;;;;;;;;;;;;;;;;;;2212579;59;1947;-23
2023/10/21 14:37:42;;;;;;;;;;;;;;;;;;2213345;59;2948;-22
2023/10/21 14:40:13;;;;;;;;;;;;;;;;;;2212892;59;2550;-25
2023/10/21 14:42:43;;;;;;;;;;;;;;;;;;2213539;59;3447;-22
2023/10/21 14:45:13;;;;;;;;;;;;;;;;;;2209000;59;3037;-22
2023/10/21 14:47:44;;;;;;;;;;;;;;;;;;2213478;59;2647;-23
2023/10/21 14:50:14;;;;;;;;;;;;;;;;;;2212506;59;3323;-26
2023/10/21 14:52:45;;;;;;;;;;;;;;;;;;2214896;59;1962;-25
2023/10/21 14:55:15;;;;;;;;;;;;;;;;;;2211451;59;3525;-25
2023/10/21 14:57:45;;;;;;;;;;;;;;;;;;2213621;59;3669;-23
2023/10/21 15:00:16;;;;;;;;;;;;;;;;;;2212978;59;3356;-23
2023/10/21 15:02:46;;;;;;;;;;;;;;;;;;2215324;59;2544;-25
2023/10/21 15:05:17;;;;;;;;;;;;;;;;;;2214472;59;3480;-25
2023/10/21 15:07:47;;;;;;;;;;;;;;;;;;2215660;59;2906;-25
2023/10/21 15:10:18;;;;;;;;;;;;;;;;;;2212612;59;3208;-23
2023/10/21 15:12:49;;;;;;;;;;;;;;;;;;2215386;59;3045;-23
2023/10/21 15:15:19;;;;;;;;;;;;;;;;;;2213942;59;2275;-26
2023/10/21 15:17:50;;;;;;;;;;;;;;;;;;2214935;59;1694;-25
2023/10/21 15:20:20;;;;;;;;;;;;;;;;;;2212578;62;2918;-23
2023/10/21 15:22:53;;;;;;;;;;;;;;;;;;2214282;59;2086;-26
2023/10/21 15:25:24;;;;;;;;;;;;;;;;;;2213255;59;3815;-26
2023/10/21 15:27:54;;;;;;;;;;;;;;;;;;2213577;59;2877;-26
2023/10/21 15:30:24;;;;;;;;;;;;;;;;;;2211491;59;4505;-22
2023/10/21 15:32:57;;;;;;;;;;;;;;;;;;2213107;59;2606;-22
2023/10/21 15:35:28;;;;;;;;;;;;;;;;;;2209217;59;3924;-26
2023/10/21 15:37:59;;;;;;;;;;;;;;;;;;2213788;59;2636;-22
2023/10/21 15:40:30;;;;;;;;;;;;;;;;;;2212400;59;2988;-26
2023/10/21 15:43:00;;;;;;;;;;;;;;;;;;2214979;59;2251;-22
2023/10/21 15:45:31;;;;;;;;;;;;;;;;;;2215024;59;2278;-22
2023/10/21 15:48:02;;;;;;;;;;;;;;;;;;2215894;59;3171;-22
2023/10/21 15:50:33;;;;;;;;;;;;;;;;;;2212120;59;2234;-26
2023/10/21 15:53:03;;;;;;;;;;;;;;;;;;2216633;59;1896;-26
2023/10/21 15:55:34;;;;;;;;;;;;;;;;;;2215800;66;3703;-22
2023/10/21 15:58:04;;;;;;;;;;;;;;;;;;2214897;59;2378;-26
2023/10/21 16:00:34;;;;;;;;;;;;;;;;;;2213152;59;3360;-24
2023/10/21 16:03:05;;;;;;;;;;;;;;;;;;2212661;59;2735;-22
2023/10/21 16:05:35;;;;;;;;;;;;;;;;;;2213115;66;3070;-22
2023/10/21 16:08:06;;;;;;;;;;;;;;;;;;2208826;66;3696;-22
2023/10/21 16:10:36;;;;;;;;;;;;;;;;;;2213771;66;4064;-22
2023/10/21 16:13:06;;;;;;;;;;;;;;;;;;2212409;59;2915;-26
2023/10/21 16:15:37;;;;;;;;;;;;;;;;;;2210226;59;3130;-22
2023/10/21 16:18:07;;;;;;;;;;;;;;;;;;2211553;66;2677;-22
2023/10/21 16:20:38;;;;;;;;;;;;;;;;;;2214097;66;2461;-22
2023/10/21 16:23:08;;;;;;;;;;;;;;;;;;2212449;66;3277;-22
2023/10/21 16:25:39;;;;;;;;;;;;;;;;;;2213159;66;3308;-22
2023/10/21 16:28:09;;;;;;;;;;;;;;;;;;2212693;59;2775;-24
2023/10/21 16:30:40;;;;;;;;;;;;;;;;;;2212771;59;2731;-25
2023/10/21 16:33:10;;;;;;;;;;;;;;;;;;2208314;59;3079;-24
2023/10/21 16:35:41;;;;;;;;;;;;;;;;;;2212253;66;3618;-21
2023/10/21 16:38:11;;;;;;;;;;;;;;;;;;2212079;59;3260;-21
2023/10/21 16:40:42;;;;;;;;;;;;;;;;;;2210787;59;1881;-24
2023/10/21 16:43:12;;;;;;;;;;;;;;;;;;2213103;59;2879;-21
2023/10/21 16:45:43;;;;;;;;;;;;;;;;;;2212674;59;2363;-24
2023/10/21 16:48:13;;;;;;;;;;;;;;;;;;2212410;59;3313;-24
2023/10/21 16:50:45;;;;;;;;;;;;;;;;;;2213332;59;4085;-21
2023/10/21 16:53:16;;;;;;;;;;;;;;;;;;2211859;59;3232;-23
2023/10/21 16:55:46;;;;;;;;;;;;;;;;;;2213257;59;2534;-25
2023/10/21 16:58:17;;;;;;;;;;;;;;;;;;2211032;59;2552;-23
2023/10/21 17:00:47;;;;;;;;;;;;;;;;;;2213027;59;3550;-21
2023/10/21 17:03:17;;;;;;;;;;;;;;;;;;2211312;59;3445;-21
2023/10/21 17:05:47;;;;;;;;;;;;;;;;;;2212318;59;3201;-24
2023/10/21 17:08:18;;;;;;;;;;;;;;;;;;2211001;59;2740;-24
2023/10/21 17:10:48;;;;;;;;;;;;;;;;;;2212879;59;2346;-24
2023/10/21 17:13:18;;;;;;;;;;;;;;;;;;2211729;59;2981;-25
2023/10/21 17:15:49;;;;;;;;;;;;;;;;;;2213199;66;3706;-21
2023/10/21 17:18:21;;;;;;;;;;;;;;;;;;2208260;66;3552;-21
2023/10/21 17:20:51;;;;;;;;;;;;;;;;;;2209115;59;1960;-21
2023/10/21 17:23:22;;;;;;;;;;;;;;;;;;2209175;59;2402;-21
2023/10/21 17:25:52;;;;;;;;;;;;;;;;;;2213220;59;3073;-21
2023/10/21 17:28:22;;;;;;;;;;;;;;;;;;2212071;59;2348;-26
2023/10/21 17:30:53;;;;;;;;;;;;;;;;;;2213647;59;2893;-25
2023/10/21 17:33:23;;;;;;;;;;;;;;;;;;2211415;59;1867;-21
2023/10/21 17:35:53;;;;;;;;;;;;;;;;;;2212492;66;3543;-21
2023/10/21 17:38:24;;;;;;;;;;;;;;;;;;2207648;59;3698;-26
2023/10/21 17:40:55;;;;;;;;;;;;;;;;;;2213594;59;2749;-24
2023/10/21 17:43:26;;;;;;;;;;;;;;;;;;2212089;59;3664;-21
2023/10/21 17:45:56;;;;;;;;;;;;;;;;;;2206396;59;3712;-21
2023/10/21 17:48:28;;;;;;;;;;;;;;;;;;2210581;59;3956;-21
2023/10/21 17:50:58;;;;;;;;;;;;;;;;;;2214128;59;3312;-23
2023/10/21 17:53:29;;;;;;;;;;;;;;;;;;2211111;59;3761;-24
2023/10/21 17:56:00;;;;;;;;;;;;;;;;;;2214042;59;4075;-24
2023/10/21 17:58:31;;;;;;;;;;;;;;;;;;2212124;59;3489;-21
2023/10/21 18:01:04;;;;;;;;;;;;;;;;;;2213539;66;3341;-23
2023/10/21 18:03:34;;;;;;;;;;;;;;;;;;2211991;59;3611;-24
2023/10/21 18:06:04;;;;;;;;;;;;;;;;;;2213353;66;3505;-21
2023/10/21 18:08:35;;;;;;;;;;;;;;;;;;2211520;66;3653;-21
2023/10/21 18:11:05;;;;;;;;;;;;;;;;;;2213055;59;3174;-21
2023/10/21 18:13:35;;;;;;;;;;;;;;;;;;2212524;59;3373;-21
2023/10/21 18:16:06;;;;;;;;;;;;;;;;;;2213609;59;3971;-25